createdAt,value
2022-10-20T00:01:13.486Z,102072.22
2022-10-20T00:03:41.750Z,102036.78
2022-10-20T00:06:11.730Z,102086.44
2022-10-20T00:08:40.693Z,102083.72
2022-10-20T00:11:09.309Z,102073.13
2022-10-20T00:13:37.445Z,102077.41
2022-10-20T00:16:06.170Z,102074.59
2022-10-20T00:18:35.763Z,102072.00
2022-10-20T00:21:07.065Z,102068.50
2022-10-20T00:23:35.165Z,102051.91
2022-10-20T00:26:05.292Z,102078.66
2022-10-20T00:28:33.740Z,102075.84
2022-10-20T00:31:02.196Z,102056.88
2022-10-20T00:33:30.178Z,102024.28
2022-10-20T00:36:01.699Z,102083.84
2022-10-20T00:38:30.145Z,102046.50
2022-10-20T00:41:00.126Z,102082.06
2022-10-20T00:43:42.733Z,102063.19
2022-10-20T00:46:12.415Z,102070.31
2022-10-20T00:48:41.113Z,102076.06
2022-10-20T00:51:10.625Z,102059.59
2022-10-20T00:53:38.802Z,102069.53
2022-10-20T00:56:07.097Z,102066.94
2022-10-20T00:58:36.508Z,102072.00
2022-10-20T01:01:05.026Z,102087.47
2022-10-20T01:03:40.966Z,102072.09
2022-10-20T01:06:10.306Z,102082.03
2022-10-20T01:08:39.768Z,102062.97
2022-10-20T01:11:19.091Z,102056.19
2022-10-20T01:14:08.304Z,102083.16
2022-10-20T01:16:46.072Z,102081.47
2022-10-20T01:19:34.254Z,102084.84
2022-10-20T01:22:18.005Z,102083.03
2022-10-20T01:25:08.544Z,101978.56
2022-10-20T01:27:40.907Z,102078.66
2022-10-20T01:30:12.527Z,102019.84
2022-10-20T01:33:04.678Z,102066.34
2022-10-20T01:35:43.714Z,102078.06
2022-10-20T01:38:21.272Z,102071.06
2022-10-20T01:40:52.614Z,102051.22
2022-10-20T01:43:25.749Z,102037.31
2022-10-20T01:45:55.524Z,102075.03
2022-10-20T01:48:28.822Z,102076.47
2022-10-20T01:50:57.223Z,102073.53
2022-10-20T01:53:25.302Z,102075.13
2022-10-20T01:55:55.525Z,102069.56
2022-10-20T01:59:06.843Z,102065.84
2022-10-20T02:01:55.358Z,102069.91
2022-10-20T02:04:31.512Z,102062.78
2022-10-20T02:07:06.223Z,102061.22
2022-10-20T02:09:39.537Z,102060.31
2022-10-20T02:12:11.172Z,102038.75
2022-10-20T02:14:42.260Z,102067.19
2022-10-20T02:17:14.496Z,102059.41
2022-10-20T02:19:44.473Z,102057.72
2022-10-20T02:22:15.096Z,102038.63
2022-10-20T02:24:45.174Z,101950.06
2022-10-20T02:27:15.660Z,102062.00
2022-10-20T02:29:49.854Z,102064.59
2022-10-20T02:32:19.453Z,102031.63
2022-10-20T02:34:47.358Z,102038.53
2022-10-20T02:39:45.342Z,102062.22
2022-10-20T02:42:13.187Z,102063.81
2022-10-20T02:44:41.189Z,102059.28
2022-10-20T02:47:10.408Z,102041.00
2022-10-20T02:49:38.252Z,102056.13
2022-10-20T02:52:06.393Z,102053.06
2022-10-20T02:54:34.359Z,102059.16
2022-10-20T02:57:02.256Z,102036.56
2022-10-20T02:59:30.298Z,101986.66
2022-10-20T03:01:58.206Z,102052.59
2022-10-20T03:04:27.806Z,102022.66
2022-10-20T03:06:55.887Z,102021.09
2022-10-20T03:09:23.768Z,102026.09
2022-10-20T03:11:51.699Z,102036.91
2022-10-20T03:14:19.853Z,102048.88
2022-10-20T03:16:47.817Z,102055.88
2022-10-20T03:19:15.932Z,102054.06
2022-10-20T03:21:46.351Z,102048.78
2022-10-20T03:24:14.206Z,102045.28
2022-10-20T03:26:42.214Z,102046.84
2022-10-20T03:29:10.165Z,102044.13
2022-10-20T03:31:38.129Z,102049.31
2022-10-20T03:34:06.116Z,102046.72
2022-10-20T03:36:34.178Z,102005.97
2022-10-20T03:39:03.546Z,102047.41
2022-10-20T03:41:31.661Z,102060.13
2022-10-20T03:43:59.630Z,102061.69
2022-10-20T03:46:27.512Z,102057.19
2022-10-20T03:48:55.522Z,102031.19
2022-10-20T03:51:23.708Z,102068.88
2022-10-20T03:53:51.654Z,102074.72
2022-10-20T03:56:22.017Z,102018.06
2022-10-20T03:58:50.304Z,102040.16
2022-10-20T04:01:20.400Z,102074.38
2022-10-20T04:03:48.422Z,102082.16
2022-10-20T04:06:16.903Z,102076.97
2022-10-20T04:08:44.921Z,102048.47
2022-10-20T04:11:13.508Z,102084.84
2022-10-20T04:13:42.940Z,102079.56
2022-10-20T04:16:10.795Z,101978.97
2022-10-20T04:18:38.843Z,102073.78
2022-10-20T04:21:07.185Z,102057.16
2022-10-20T04:23:35.095Z,102074.88
2022-10-20T04:26:09.467Z,102075.66
2022-10-20T04:28:37.427Z,102076.19
2022-10-20T04:31:07.315Z,102076.84
2022-10-20T04:33:35.851Z,102043.44
2022-10-20T04:36:06.970Z,102069.50
2022-10-20T04:38:35.717Z,102008.63
2022-10-20T04:41:05.744Z,102079.75
2022-10-20T04:43:34.535Z,101983.59
2022-10-20T04:46:07.115Z,102073.41
2022-10-20T04:48:38.764Z,101991.47
2022-10-20T04:51:09.009Z,102065.53
2022-10-20T04:53:37.286Z,102059.44
2022-10-20T04:56:06.737Z,102068.22
2022-10-20T04:58:35.086Z,102071.84
2022-10-20T05:01:03.714Z,101961.00
2022-10-20T05:03:31.902Z,102073.13
2022-10-20T05:06:11.526Z,102002.81
2022-10-20T05:08:40.103Z,102071.84
2022-10-20T05:11:08.793Z,102069.00
2022-10-20T05:13:37.091Z,102056.69
2022-10-20T05:16:05.956Z,102078.09
2022-10-20T05:18:34.322Z,102043.81
2022-10-20T05:21:09.444Z,102076.22
2022-10-20T05:23:39.954Z,102076.75
2022-10-20T05:26:10.466Z,102014.28
2022-10-20T05:28:38.332Z,102059.34
2022-10-20T05:31:08.279Z,102065.53
2022-10-20T05:33:37.259Z,102082.84
2022-10-20T05:36:10.005Z,102067.22
2022-10-20T05:38:40.983Z,102053.78
2022-10-20T05:41:10.523Z,102091.88
2022-10-20T05:43:38.755Z,102090.06
2022-10-20T05:46:07.363Z,102084.88
2022-10-20T05:48:39.373Z,102082.16
2022-10-20T05:51:13.895Z,102093.31
2022-10-20T05:53:47.074Z,102096.56
2022-10-20T05:56:17.957Z,102084.41
2022-10-20T05:58:47.351Z,102074.94
2022-10-20T06:01:19.214Z,102067.59
2022-10-20T06:03:50.253Z,102082.84
2022-10-20T06:06:18.745Z,102081.25
2022-10-20T06:08:48.685Z,102056.22
2022-10-20T06:11:17.017Z,102057.34
2022-10-20T06:13:48.467Z,102014.78
2022-10-20T06:16:22.547Z,102080.53
2022-10-20T06:18:50.673Z,102080.63
2022-10-20T06:21:20.332Z,102078.28
2022-10-20T06:23:50.279Z,102094.31
2022-10-20T06:26:20.076Z,102094.69
2022-10-20T06:28:49.567Z,102084.69
2022-10-20T06:31:19.241Z,102067.88
2022-10-20T06:33:48.106Z,102037.53
2022-10-20T06:36:16.806Z,102083.53
2022-10-20T06:38:45.682Z,102093.66
2022-10-20T06:41:17.359Z,102036.50
2022-10-20T06:43:45.923Z,102090.97
2022-10-20T06:46:16.141Z,102071.66
2022-10-20T06:48:44.795Z,102090.59
2022-10-20T06:51:14.763Z,102012.63
2022-10-20T06:53:46.532Z,102090.13
2022-10-20T06:56:18.128Z,102081.91
2022-10-20T06:58:48.438Z,102085.81
2022-10-20T07:01:19.312Z,102094.41
2022-10-20T07:03:48.828Z,102101.84
2022-10-20T07:06:20.029Z,102097.63
2022-10-20T07:08:48.428Z,102067.34
2022-10-20T07:11:19.455Z,102107.59
2022-10-20T07:13:49.454Z,102080.16
2022-10-20T07:16:19.227Z,102099.91
2022-10-20T07:18:48.430Z,102112.44
2022-10-20T07:21:18.697Z,102097.84
2022-10-20T07:23:47.570Z,101969.22
2022-10-20T07:26:19.046Z,102101.84
2022-10-20T07:28:54.650Z,102099.09
2022-10-20T07:31:27.099Z,102086.44
2022-10-20T07:34:06.880Z,102088.13
2022-10-20T07:36:44.429Z,102108.38
2022-10-20T07:39:14.234Z,102041.88
2022-10-20T07:41:47.420Z,102077.09
2022-10-20T07:44:15.860Z,102103.50
2022-10-20T07:46:43.922Z,102109.94
2022-10-20T07:49:42.452Z,102113.75
2022-10-20T07:52:01.328Z,102110.34
2022-10-20T07:54:29.363Z,102032.41
2022-10-20T07:56:58.685Z,102114.56
2022-10-20T07:59:27.042Z,102113.31
2022-10-20T08:01:56.251Z,102116.38
2022-10-20T08:04:26.811Z,102103.44
2022-10-20T08:06:54.992Z,102107.56
2022-10-20T08:09:23.013Z,102097.28
2022-10-20T08:11:54.616Z,102110.91
2022-10-20T08:14:27.781Z,102107.81
2022-10-20T08:16:58.247Z,102079.38
2022-10-20T08:19:36.724Z,102099.69
2022-10-20T08:22:04.719Z,102096.25
2022-10-20T08:24:32.819Z,102103.22
2022-10-20T08:27:01.744Z,102097.47
2022-10-20T08:29:31.081Z,102106.81
2022-10-20T08:31:59.205Z,102070.53
2022-10-20T08:34:27.585Z,102053.59
2022-10-20T08:36:55.504Z,102108.25
2022-10-20T08:39:23.768Z,102093.69
2022-10-20T08:42:07.920Z,102099.91
2022-10-20T08:44:41.271Z,102096.63
2022-10-20T08:47:19.356Z,102092.41
2022-10-20T08:49:47.907Z,102093.53
2022-10-20T08:52:16.562Z,102088.84
2022-10-20T08:54:44.530Z,102080.97
2022-10-20T08:57:23.234Z,102085.56
2022-10-20T08:59:54.521Z,102090.16
2022-10-20T09:02:23.635Z,102095.03
2022-10-20T09:04:55.141Z,102072.13
2022-10-20T09:07:29.841Z,102075.44
2022-10-20T09:10:05.927Z,102087.63
2022-10-20T09:12:35.014Z,102081.00
2022-10-20T09:15:04.519Z,102076.00
2022-10-20T09:17:33.108Z,102053.78
2022-10-20T09:20:02.407Z,102073.19
2022-10-20T09:22:35.703Z,102076.03
2022-10-20T09:25:04.915Z,102071.19
2022-10-20T09:27:35.558Z,102059.59
2022-10-20T09:30:21.088Z,102072.13
2022-10-20T09:32:49.774Z,102077.94
2022-10-20T09:35:24.929Z,102052.72
2022-10-20T09:38:03.793Z,102063.50
2022-10-20T09:40:32.695Z,102072.84
2022-10-20T09:43:04.023Z,102056.31
2022-10-20T09:45:36.073Z,102056.63
2022-10-20T09:48:09.173Z,102067.34
2022-10-20T09:50:41.463Z,102059.09
2022-10-20T09:53:20.235Z,102065.56
2022-10-20T09:55:49.901Z,102057.75
2022-10-20T09:58:22.895Z,102047.09
2022-10-20T10:01:01.231Z,102050.72
2022-10-20T10:03:29.442Z,102016.94
2022-10-20T10:05:59.091Z,102047.69
2022-10-20T10:08:30.704Z,102048.13
2022-10-20T10:11:02.566Z,102033.56
2022-10-20T10:13:33.442Z,102049.66
2022-10-20T10:16:08.562Z,102043.84
2022-10-20T10:18:38.927Z,102043.56
2022-10-20T10:21:09.613Z,102038.13
2022-10-20T10:23:51.272Z,102041.63
2022-10-20T10:26:42.469Z,102045.00
2022-10-20T10:29:19.937Z,102048.03
2022-10-20T10:31:57.201Z,102043.44
2022-10-20T10:34:48.785Z,101992.72
2022-10-20T10:37:18.100Z,102039.78
2022-10-20T10:39:46.595Z,102049.69
2022-10-20T10:42:40.397Z,102055.34
2022-10-20T10:45:26.555Z,102052.66
2022-10-20T10:48:15.247Z,102057.63
2022-10-20T10:50:52.589Z,102024.19
2022-10-20T10:53:34.726Z,102030.34
2022-10-20T10:56:12.358Z,102034.63
2022-10-20T10:58:59.988Z,102033.66
2022-10-20T11:01:49.482Z,102032.13
2022-10-20T11:04:44.461Z,102012.00
2022-10-20T11:07:21.231Z,102037.81
2022-10-20T11:09:59.535Z,102033.19
2022-10-20T11:12:42.130Z,102025.63
2022-10-20T11:15:29.030Z,102035.13
2022-10-20T11:18:02.357Z,102030.22
2022-10-20T11:20:41.001Z,102026.88
2022-10-20T11:23:31.509Z,102022.97
2022-10-20T11:26:12.360Z,102024.44
2022-10-20T11:28:45.282Z,102025.97
2022-10-20T11:31:22.650Z,102024.63
2022-10-20T11:33:56.626Z,102032.06
2022-10-20T11:36:32.933Z,102032.31
2022-10-20T11:39:01.404Z,102025.22
2022-10-20T11:41:35.603Z,102014.53
2022-10-20T11:44:07.869Z,101972.72
2022-10-20T11:46:46.556Z,102010.00
2022-10-20T11:49:14.662Z,102011.84
2022-10-20T11:52:07.552Z,102007.78
2022-10-20T11:54:49.301Z,102004.94
2022-10-20T11:57:31.917Z,102012.09
2022-10-20T12:03:41.172Z,102011.16
2022-10-20T12:06:50.352Z,101997.47
2022-10-20T12:09:35.553Z,102019.69
2022-10-20T12:12:07.969Z,102016.44
2022-10-20T12:14:40.532Z,102010.56
2022-10-20T12:17:29.492Z,102010.09
2022-10-20T12:20:30.967Z,101999.09
2022-10-20T12:23:01.655Z,102010.59
2022-10-20T12:25:40.742Z,102000.56
2022-10-20T12:28:42.650Z,101993.06
2022-10-20T12:31:10.873Z,102002.28
2022-10-20T12:33:42.448Z,102002.94
2022-10-20T12:36:31.011Z,101996.16
2022-10-20T12:39:16.128Z,102000.81
2022-10-20T12:41:57.614Z,101986.06
2022-10-20T12:44:27.625Z,101992.72
2022-10-20T12:46:58.526Z,101980.88
2022-10-20T12:49:32.353Z,101983.50
2022-10-20T12:52:01.731Z,101977.06
2022-10-20T12:54:36.560Z,101976.38
2022-10-20T12:57:26.647Z,101978.66
2022-10-20T12:59:54.890Z,101975.88
2022-10-20T13:02:47.677Z,101972.97
2022-10-20T13:05:49.448Z,101959.53
2022-10-20T13:08:29.363Z,101968.09
2022-10-20T13:11:18.197Z,101966.81
2022-10-20T13:14:07.124Z,101960.84
2022-10-20T13:16:35.773Z,101957.44
2022-10-20T13:19:08.837Z,101951.50
2022-10-20T13:21:36.814Z,101946.97
2022-10-20T13:24:13.689Z,101948.56
2022-10-20T13:26:49.690Z,101950.94
2022-10-20T13:29:26.244Z,101942.13
2022-10-20T13:34:49.382Z,101945.97
2022-10-20T13:37:41.428Z,101943.38
2022-10-20T13:40:23.388Z,101927.50
2022-10-20T13:43:02.364Z,101948.63
2022-10-20T13:45:48.304Z,101937.72
2022-10-20T13:48:30.034Z,101951.97
2022-10-20T13:51:01.770Z,101954.09
2022-10-20T13:53:34.080Z,101955.13
2022-10-20T13:56:06.814Z,101958.13
2022-10-20T13:58:35.702Z,101955.31
2022-10-20T14:01:07.573Z,101958.03
2022-10-20T14:03:44.550Z,101964.63
2022-10-20T14:06:30.674Z,101929.06
2022-10-20T14:09:00.755Z,101954.50
2022-10-20T14:11:32.985Z,101957.72
2022-10-20T14:14:02.332Z,101958.78
2022-10-20T14:16:33.008Z,101962.72
2022-10-20T14:19:03.006Z,101954.69
2022-10-20T14:21:31.098Z,101968.16
2022-10-20T14:24:04.180Z,101940.44
2022-10-20T14:26:34.444Z,101957.88
2022-10-20T14:29:03.841Z,101963.88
2022-10-20T14:31:33.428Z,101951.25
2022-10-20T14:34:01.336Z,101967.56
2022-10-20T14:36:31.192Z,101953.84
2022-10-20T14:39:02.036Z,101955.56
2022-10-20T14:41:32.377Z,101961.47
2022-10-20T14:44:05.223Z,101957.78
2022-10-20T14:46:41.130Z,101920.25
2022-10-20T14:49:16.524Z,101967.72
2022-10-20T14:51:55.035Z,101939.94
2022-10-20T14:54:36.286Z,101955.81
2022-10-20T14:57:31.495Z,101951.09
2022-10-20T15:00:03.763Z,101958.78
2022-10-20T15:02:35.563Z,101955.03
2022-10-20T15:05:22.536Z,101950.28
2022-10-20T15:07:50.606Z,101963.78
2022-10-20T15:10:21.846Z,101938.03
2022-10-20T15:12:52.941Z,101941.41
2022-10-20T15:15:23.953Z,101926.94
2022-10-20T15:17:54.447Z,101921.06
2022-10-20T15:20:34.593Z,101951.13
2022-10-20T15:23:04.443Z,101945.41
2022-10-20T15:25:38.349Z,101950.63
2022-10-20T15:28:08.113Z,101944.81
2022-10-20T15:30:36.444Z,101950.88
2022-10-20T15:33:05.772Z,101906.78
2022-10-20T15:35:34.720Z,101939.19
2022-10-20T15:38:02.707Z,101933.78
2022-10-20T15:40:30.537Z,101930.00
2022-10-20T15:42:58.421Z,101907.34
2022-10-20T15:45:26.804Z,101911.94
2022-10-20T15:47:54.686Z,101914.38
2022-10-20T15:50:24.951Z,101924.91
2022-10-20T15:52:54.242Z,101897.44
2022-10-20T15:55:25.870Z,101924.50
2022-10-20T15:57:55.439Z,101917.38
2022-10-20T16:00:25.733Z,101921.63
2022-10-20T16:02:54.001Z,101930.28
2022-10-20T16:05:25.259Z,101917.34
2022-10-20T16:07:54.647Z,101911.59
2022-10-20T16:10:23.599Z,101908.50
2022-10-20T16:12:51.865Z,101925.44
2022-10-20T16:15:19.959Z,101919.78
2022-10-20T16:20:17.465Z,101898.09
2022-10-20T16:22:46.864Z,101910.69
2022-10-20T16:25:15.077Z,101924.09
2022-10-20T16:27:42.978Z,101917.88
2022-10-20T16:30:11.530Z,101912.31
2022-10-20T16:32:40.113Z,101917.53
2022-10-20T16:35:08.678Z,101912.88
2022-10-20T16:37:37.114Z,101907.94
2022-10-20T16:40:07.693Z,101912.06
2022-10-20T16:42:35.560Z,101817.31
2022-10-20T16:45:03.672Z,101905.97
2022-10-20T16:47:31.570Z,101905.53
2022-10-20T16:49:59.431Z,101899.84
2022-10-20T16:52:27.474Z,101898.50
2022-10-20T16:54:55.314Z,101900.75
2022-10-20T16:57:28.481Z,101895.25
2022-10-20T17:00:00.005Z,101889.50
2022-10-20T17:02:27.863Z,101895.53
2022-10-20T17:04:55.810Z,101892.63
2022-10-20T17:07:23.804Z,101888.94
2022-10-20T17:09:51.638Z,101893.16
2022-10-20T17:12:19.691Z,101884.28
2022-10-20T17:14:49.109Z,101882.38
2022-10-20T17:17:16.999Z,101885.59
2022-10-20T17:19:45.130Z,101892.44
2022-10-20T17:22:13.111Z,101891.53
2022-10-20T17:24:40.957Z,101901.06
2022-10-20T17:27:09.172Z,101882.69
2022-10-20T17:29:37.393Z,101901.50
2022-10-20T17:32:07.181Z,101875.31
2022-10-20T17:34:35.475Z,101896.72
2022-10-20T17:37:03.396Z,101887.16
2022-10-20T17:39:31.384Z,101906.75
2022-10-20T17:41:59.377Z,101893.97
2022-10-20T17:44:27.534Z,101902.97
2022-10-20T17:46:55.391Z,101887.47
2022-10-20T17:49:24.668Z,101908.97
2022-10-20T17:51:52.635Z,101890.09
2022-10-20T17:54:20.669Z,101908.47
2022-10-20T17:56:50.681Z,101893.16
2022-10-20T17:59:19.137Z,101908.47
2022-10-20T18:01:47.226Z,101908.38
2022-10-20T18:04:17.240Z,101909.16
2022-10-20T18:06:47.187Z,101909.16
2022-10-20T18:09:17.383Z,101910.88
2022-10-20T18:11:48.315Z,101920.50
2022-10-20T18:14:17.096Z,101901.78
2022-10-20T18:16:45.894Z,101855.00
2022-10-20T18:19:16.071Z,101896.38
2022-10-20T18:21:44.032Z,101907.78
2022-10-20T18:24:14.848Z,101908.50
2022-10-20T18:26:43.403Z,101912.72
2022-10-20T18:29:12.788Z,101899.13
2022-10-20T18:31:42.565Z,101903.72
2022-10-20T18:34:13.195Z,101888.03
2022-10-20T18:36:44.961Z,101903.53
2022-10-20T18:39:16.065Z,101893.09
2022-10-20T18:41:45.684Z,101836.09
2022-10-20T18:44:15.353Z,101891.03
2022-10-20T18:46:44.638Z,101872.22
2022-10-20T18:49:14.462Z,101879.31
2022-10-20T18:51:42.866Z,101879.31
2022-10-20T18:54:11.085Z,101876.53
2022-10-20T18:56:40.350Z,101873.81
2022-10-20T18:59:10.382Z,101873.72
2022-10-20T19:01:40.245Z,101860.09
2022-10-20T19:04:10.131Z,101789.84
2022-10-20T19:06:41.070Z,101873.34
2022-10-20T19:09:18.824Z,101874.16
2022-10-20T19:14:18.502Z,101877.41
2022-10-20T19:16:47.865Z,101883.44
2022-10-20T19:19:16.925Z,101884.13
2022-10-20T19:21:45.077Z,101875.34
2022-10-20T19:24:16.395Z,101872.63
2022-10-20T19:26:56.995Z,101817.53
2022-10-20T19:29:35.971Z,101859.63
2022-10-20T19:32:05.977Z,101875.66
2022-10-20T19:34:36.548Z,101879.84
2022-10-20T19:37:04.960Z,101879.66
2022-10-20T19:39:35.757Z,101847.84
2022-10-20T19:42:05.577Z,101866.16
2022-10-20T19:44:35.852Z,101821.16
2022-10-20T19:47:05.056Z,101840.84
2022-10-20T19:49:33.517Z,101858.84
2022-10-20T19:52:01.771Z,101828.97
2022-10-20T19:54:30.193Z,101833.97
2022-10-20T19:56:58.403Z,101866.66
2022-10-20T19:59:26.553Z,101862.66
2022-10-20T20:01:55.827Z,101864.47
2022-10-20T20:04:23.856Z,101851.06
2022-10-20T20:06:52.361Z,101875.06
2022-10-20T20:09:20.287Z,101858.88
2022-10-20T20:11:48.193Z,101810.41
2022-10-20T20:14:17.996Z,101836.47
2022-10-20T20:16:47.054Z,101870.56
2022-10-20T20:19:17.716Z,101863.06
2022-10-20T20:21:46.336Z,101864.06
2022-10-20T20:24:14.838Z,101859.66
2022-10-20T20:26:43.425Z,101852.25
2022-10-20T20:29:11.687Z,101806.66
2022-10-20T20:31:40.515Z,101861.66
2022-10-20T20:34:08.492Z,101856.56
2022-10-20T20:36:39.511Z,101860.72
2022-10-20T20:39:08.546Z,101821.44
2022-10-20T20:41:36.666Z,101836.31
2022-10-20T20:44:08.273Z,101843.38
2022-10-20T20:46:36.780Z,101832.69
2022-10-20T20:49:05.115Z,101833.78
2022-10-20T20:51:34.099Z,101842.59
2022-10-20T20:54:04.169Z,101848.97
2022-10-20T20:56:32.471Z,101857.97
2022-10-20T20:59:00.511Z,101844.34
2022-10-20T21:01:31.707Z,101820.44
2022-10-20T21:04:02.136Z,101790.03
2022-10-20T21:06:56.650Z,101801.94
2022-10-20T21:09:20.205Z,101842.69
2022-10-20T21:11:49.162Z,101838.66
2022-10-20T21:14:17.170Z,101842.34
2022-10-20T21:16:45.574Z,101840.72
2022-10-20T21:19:13.861Z,101819.69
2022-10-20T21:21:44.550Z,101834.19
2022-10-20T21:24:13.836Z,101830.88
2022-10-20T21:26:43.657Z,101812.09
2022-10-20T21:29:11.857Z,101829.00
2022-10-20T21:31:40.889Z,101785.13
2022-10-20T21:34:08.832Z,101812.00
2022-10-20T21:36:38.683Z,101800.84
2022-10-20T21:39:08.996Z,101820.81
2022-10-20T21:41:38.603Z,101819.38
2022-10-20T21:44:08.673Z,101756.81
2022-10-20T21:46:39.339Z,101810.31
2022-10-20T21:49:10.434Z,101811.47
2022-10-20T21:51:39.754Z,101808.06
2022-10-20T21:54:11.248Z,101802.66
2022-10-20T21:56:43.529Z,101799.34
2022-10-20T21:59:18.980Z,101803.75
2022-10-20T22:01:47.309Z,101806.44
2022-10-20T22:04:16.046Z,101806.63
2022-10-20T22:06:44.230Z,101807.69
2022-10-20T22:09:13.624Z,101814.78
2022-10-20T22:11:44.076Z,101813.16
2022-10-20T22:14:12.875Z,101811.72
2022-10-20T22:16:43.742Z,101812.72
2022-10-20T22:19:14.995Z,101811.00
2022-10-20T22:21:47.216Z,101805.59
2022-10-20T22:24:16.489Z,101809.22
2022-10-20T22:26:44.473Z,101813.63
2022-10-20T22:29:12.764Z,101804.00
2022-10-20T22:31:43.040Z,101807.59
2022-10-20T22:34:11.912Z,101755.56
2022-10-20T22:36:40.884Z,101760.22
2022-10-20T22:39:09.936Z,101764.47
2022-10-20T22:41:38.066Z,101767.97
2022-10-20T22:44:06.509Z,101828.63
2022-10-20T22:46:34.956Z,101823.94
2022-10-20T22:49:06.044Z,101829.34
2022-10-20T22:51:33.879Z,101821.44
2022-10-20T22:54:03.023Z,101825.03
2022-10-20T22:56:30.949Z,101792.59
2022-10-20T22:59:01.087Z,101824.31
2022-10-20T23:01:29.255Z,101821.69
2022-10-20T23:03:57.253Z,101813.63
2022-10-20T23:06:27.996Z,101789.53
2022-10-20T23:08:57.452Z,101805.78
2022-10-20T23:11:25.399Z,101803.25
2022-10-20T23:13:53.495Z,101804.34
2022-10-20T23:16:22.123Z,101800.19
2022-10-20T23:18:50.129Z,101796.59
2022-10-20T23:21:19.488Z,101790.56
2022-10-20T23:23:49.059Z,101773.41
2022-10-20T23:26:17.028Z,101770.97
2022-10-20T23:28:44.897Z,101780.41
2022-10-20T23:31:14.233Z,101757.31
2022-10-20T23:33:43.925Z,101768.34
2022-10-20T23:36:13.186Z,101770.22
2022-10-20T23:38:41.357Z,101771.22
2022-10-20T23:41:10.675Z,101756.13
2022-10-20T23:43:38.693Z,101764.28
2022-10-20T23:46:07.539Z,101715.06
2022-10-20T23:48:35.781Z,101760.03
2022-10-20T23:51:03.880Z,101753.94
2022-10-20T23:53:32.614Z,101746.09
2022-10-20T23:56:00.778Z,101714.69
2022-10-20T23:58:30.085Z,101747.00
